PWSweather.com
Personal Weather Stations
Station Observations
ANTHEMNP
Anthem North Parkside, Anthem, AZ 85086

Anthem North ParksideAnthem, AZ 85086

Lat: 33.876464, Lon: -112.13861199999997

Elevation: 1930

Station Type: Davis Vantage Vue with Pro 2 console

http://www.azjerry.com/ANPW/wxindex.php

High Low Average
Temperature 89.5°F31.9°C 72.7°F22.6°C 82.4°F28.0°C
Dew Point 54.9°F12.7°C 40.3°F4.6°C 49.7°F9.8°C
Winds 8.1 mph 13.0 kmh Calm Calm 2.0 mph E3.2 kmh E
Wind Gusts 11.5 mph18.5 kmh -- 4.0 mph6.4 kmh
Humidity 37% 29% 32%
Pressure 30.04 in1017.3 mb 29.94 in1013.9 mb -
Precipitation 0.00 in0.0 mm - -
Hour Temp Dew Point Humidity Winds Wind Gusts Pressure Precip Precip Rate Daily Precip Total
02:45 PM 72.7°F22.6°C 44.2°F6.8°C 36% 3.5 mph NNE5.6 kmh NNE 5.8 mph9.3 kmh 30.04 in1017.3 mb - 0.00 in0.0 mm 0.00 in0.0 mm
02:50 PM 72.7°F22.6°C 40.3°F4.6°C 31% 5.8 mph SE9.3 kmh SE 10.4 mph16.7 kmh 29.97 in1014.9 mb - 0.00 in0.0 mm 0.00 in0.0 mm
02:55 PM 88.4°F31.3°C 54.0°F12.2°C 31% 8.1 mph SSE13.0 kmh SSE 11.5 mph18.5 kmh 29.96 in1014.6 mb - 0.00 in0.0 mm 0.00 in0.0 mm
03:00 PM 88.4°F31.3°C 53.9°F12.2°C 31% 4.6 mph SSE7.4 kmh SSE 9.2 mph14.8 kmh 29.97 in1014.9 mb - 0.00 in0.0 mm 0.00 in0.0 mm
03:10 PM 88.7°F31.5°C 54.1°F12.3°C 31% 5.8 mph S9.3 kmh S 11.5 mph18.5 kmh 29.96 in1014.6 mb - 0.00 in0.0 mm 0.00 in0.0 mm
03:15 PM 88.5°F31.4°C 54.0°F12.2°C 31% 5.8 mph SSE9.3 kmh SSE 9.2 mph14.8 kmh 29.96 in1014.6 mb - 0.00 in0.0 mm 0.00 in0.0 mm
03:20 PM 88.7°F31.5°C 53.3°F11.8°C 30% 5.8 mph SE9.3 kmh SE 6.9 mph11.1 kmh 29.96 in1014.6 mb - 0.00 in0.0 mm 0.00 in0.0 mm
03:25 PM 89.0°F31.7°C 54.4°F12.4°C 31% 2.3 mph NNE3.7 kmh NNE 3.5 mph5.6 kmh 29.96 in1014.6 mb - 0.00 in0.0 mm 0.00 in0.0 mm
03:30 PM 89.5°F31.9°C 54.9°F12.7°C 31% 3.5 mph SE5.6 kmh SE 11.5 mph18.5 kmh 29.96 in1014.6 mb - 0.00 in0.0 mm 0.00 in0.0 mm
03:35 PM 89.4°F31.9°C 53.0°F11.7°C 29% 3.5 mph SE5.6 kmh SE 5.8 mph9.3 kmh 29.96 in1014.6 mb - 0.00 in0.0 mm 0.00 in0.0 mm
03:40 PM 88.7°F31.5°C 53.3°F11.8°C 30% 2.3 mph ENE3.7 kmh ENE 3.5 mph5.6 kmh 29.96 in1014.6 mb - 0.00 in0.0 mm 0.00 in0.0 mm
03:45 PM 88.1°F31.2°C 52.8°F11.6°C 30% 2.3 mph NE3.7 kmh NE 3.5 mph5.6 kmh 29.96 in1014.6 mb - 0.00 in0.0 mm 0.00 in0.0 mm
03:50 PM 88.3°F31.3°C 52.9°F11.6°C 30% 2.3 mph ESE3.7 kmh ESE 3.5 mph5.6 kmh 29.95 in1014.2 mb - 0.00 in0.0 mm 0.00 in0.0 mm
03:55 PM 88.7°F31.5°C 53.3°F11.8°C 30% 2.3 mph SE3.7 kmh SE 3.5 mph5.6 kmh 29.95 in1014.2 mb - 0.00 in0.0 mm 0.00 in0.0 mm
04:00 PM 88.6°F31.4°C 53.2°F11.8°C 30% 1.2 mph NE1.9 kmh NE 3.5 mph5.6 kmh 29.95 in1014.2 mb - 0.00 in0.0 mm 0.00 in0.0 mm
04:10 PM 87.3°F30.7°C 52.1°F11.2°C 30% 2.3 mph SE3.7 kmh SE 3.5 mph5.6 kmh 29.95 in1014.2 mb - 0.00 in0.0 mm 0.00 in0.0 mm
04:15 PM 87.0°F30.6°C 52.7°F11.5°C 31% 2.3 mph SE3.7 kmh SE 5.8 mph9.3 kmh 29.95 in1014.2 mb - 0.00 in0.0 mm 0.00 in0.0 mm
04:20 PM 87.2°F30.7°C 52.9°F11.6°C 31% 3.5 mph SE5.6 kmh SE 6.9 mph11.1 kmh 29.95 in1014.2 mb - 0.00 in0.0 mm 0.00 in0.0 mm
04:25 PM 87.3°F30.7°C 53.0°F11.7°C 31% 2.3 mph SE3.7 kmh SE 3.5 mph5.6 kmh 29.95 in1014.2 mb - 0.00 in0.0 mm 0.00 in0.0 mm
04:30 PM 87.3°F30.7°C 52.0°F11.1°C 30% 1.2 mph NE1.9 kmh NE 4.6 mph7.4 kmh 29.95 in1014.2 mb - 0.00 in0.0 mm 0.00 in0.0 mm
04:35 PM 87.1°F30.6°C 51.9°F11.1°C 30% 2.3 mph ENE3.7 kmh ENE 4.6 mph7.4 kmh 29.95 in1014.2 mb - 0.00 in0.0 mm 0.00 in0.0 mm
04:40 PM 87.0°F30.6°C 51.8°F11.0°C 30% 2.3 mph WSW3.7 kmh WSW 3.5 mph5.6 kmh 29.95 in1014.2 mb - 0.00 in0.0 mm 0.00 in0.0 mm
04:45 PM 87.0°F30.6°C 52.7°F11.5°C 31% 1.2 mph SE1.9 kmh SE 1.2 mph1.9 kmh 29.95 in1014.2 mb - 0.00 in0.0 mm 0.00 in0.0 mm
04:50 PM 87.0°F30.6°C 52.7°F11.5°C 31% 1.2 mph ENE1.9 kmh ENE 3.5 mph5.6 kmh 29.95 in1014.2 mb - 0.00 in0.0 mm 0.00 in0.0 mm
04:55 PM 86.9°F30.5°C 51.7°F10.9°C 30% 2.3 mph E3.7 kmh E 3.5 mph5.6 kmh 29.95 in1014.2 mb - 0.00 in0.0 mm 0.00 in0.0 mm
05:00 PM 86.6°F30.3°C 52.4°F11.3°C 31% 2.3 mph E3.7 kmh E 3.5 mph5.6 kmh 29.95 in1014.2 mb - 0.00 in0.0 mm 0.00 in0.0 mm
05:10 PM 85.9°F29.9°C 51.7°F10.9°C 31% 1.2 mph NE1.9 kmh NE 1.2 mph1.9 kmh 29.95 in1014.2 mb - 0.00 in0.0 mm 0.00 in0.0 mm
05:15 PM 85.6°F29.8°C 51.5°F10.8°C 31% 1.2 mph ESE1.9 kmh ESE 2.3 mph3.7 kmh 29.94 in1013.9 mb - 0.00 in0.0 mm 0.00 in0.0 mm
05:20 PM 85.4°F29.7°C 52.2°F11.2°C 32% Calm Calm 2.3 mph3.7 kmh 29.94 in1013.9 mb - 0.00 in0.0 mm 0.00 in0.0 mm
05:25 PM 84.8°F29.3°C 51.7°F10.9°C 32% 1.2 mph N1.9 kmh N 1.2 mph1.9 kmh 29.94 in1013.9 mb - 0.00 in0.0 mm 0.00 in0.0 mm
05:30 PM 84.3°F29.1°C 52.0°F11.1°C 33% Calm Calm 2.3 mph3.7 kmh 29.94 in1013.9 mb - 0.00 in0.0 mm 0.00 in0.0 mm
05:35 PM 83.9°F28.8°C 51.7°F10.9°C 33% 1.2 mph NNE1.9 kmh NNE 2.3 mph3.7 kmh 29.94 in1013.9 mb - 0.00 in0.0 mm 0.00 in0.0 mm
05:40 PM 83.6°F28.7°C 51.5°F10.8°C 33% 1.2 mph NE1.9 kmh NE 2.3 mph3.7 kmh 29.94 in1013.9 mb - 0.00 in0.0 mm 0.00 in0.0 mm
05:45 PM 83.5°F28.6°C 51.3°F10.7°C 33% 1.2 mph NE1.9 kmh NE 2.3 mph3.7 kmh 29.95 in1014.2 mb - 0.00 in0.0 mm 0.00 in0.0 mm
05:50 PM 83.2°F28.4°C 51.1°F10.6°C 33% 1.2 mph NE1.9 kmh NE 2.3 mph3.7 kmh 29.95 in1014.2 mb - 0.00 in0.0 mm 0.00 in0.0 mm
05:55 PM 83.0°F28.3°C 50.9°F10.5°C 33% 1.2 mph NE1.9 kmh NE 2.3 mph3.7 kmh 29.95 in1014.2 mb - 0.00 in0.0 mm 0.00 in0.0 mm
06:00 PM 82.9°F28.3°C 50.8°F10.4°C 33% 2.3 mph NNE3.7 kmh NNE 3.5 mph5.6 kmh 29.95 in1014.2 mb - 0.00 in0.0 mm 0.00 in0.0 mm
06:10 PM 82.5°F28.1°C 50.5°F10.3°C 33% 2.3 mph NNE3.7 kmh NNE 3.5 mph5.6 kmh 29.95 in1014.2 mb - 0.00 in0.0 mm 0.00 in0.0 mm
06:15 PM 82.4°F28.0°C 50.4°F10.2°C 33% 2.3 mph NE3.7 kmh NE 4.6 mph7.4 kmh 29.95 in1014.2 mb - 0.00 in0.0 mm 0.00 in0.0 mm
06:20 PM 82.3°F27.9°C 50.3°F10.2°C 33% 2.3 mph NNE3.7 kmh NNE 3.5 mph5.6 kmh 29.95 in1014.2 mb - 0.00 in0.0 mm 0.00 in0.0 mm
06:25 PM 82.3°F27.9°C 50.3°F10.2°C 33% 2.3 mph NE3.7 kmh NE 3.5 mph5.6 kmh 29.95 in1014.2 mb - 0.00 in0.0 mm 0.00 in0.0 mm
06:30 PM 82.2°F27.9°C 50.2°F10.1°C 33% 1.2 mph N1.9 kmh N 2.3 mph3.7 kmh 29.95 in1014.2 mb - 0.00 in0.0 mm 0.00 in0.0 mm
06:35 PM 81.8°F27.7°C 49.9°F9.9°C 33% 1.2 mph NNE1.9 kmh NNE 5.8 mph9.3 kmh 29.95 in1014.2 mb - 0.00 in0.0 mm 0.00 in0.0 mm
06:40 PM 81.6°F27.6°C 50.5°F10.3°C 34% 2.3 mph NE3.7 kmh NE 3.5 mph5.6 kmh 29.95 in1014.2 mb - 0.00 in0.0 mm 0.00 in0.0 mm
06:45 PM 81.6°F27.6°C 49.7°F9.8°C 33% 3.5 mph ENE5.6 kmh ENE 3.5 mph5.6 kmh 29.95 in1014.2 mb - 0.00 in0.0 mm 0.00 in0.0 mm
06:50 PM 81.7°F27.6°C 49.8°F9.9°C 33% 1.2 mph N1.9 kmh N 2.3 mph3.7 kmh 29.95 in1014.2 mb - 0.00 in0.0 mm 0.00 in0.0 mm
06:55 PM 81.6°F27.6°C 48.9°F9.4°C 32% 1.2 mph NE1.9 kmh NE 4.6 mph7.4 kmh 29.95 in1014.2 mb - 0.00 in0.0 mm 0.00 in0.0 mm
07:00 PM 81.8°F27.7°C 49.0°F9.4°C 32% 2.3 mph NE3.7 kmh NE 3.5 mph5.6 kmh 29.95 in1014.2 mb - 0.00 in0.0 mm 0.00 in0.0 mm
07:10 PM 81.8°F27.7°C 49.0°F9.4°C 32% 3.5 mph N5.6 kmh N 4.6 mph7.4 kmh 29.95 in1014.2 mb - 0.00 in0.0 mm 0.00 in0.0 mm
07:15 PM 81.8°F27.7°C 49.1°F9.5°C 32% 2.3 mph NE3.7 kmh NE 3.5 mph5.6 kmh 29.95 in1014.2 mb - 0.00 in0.0 mm 0.00 in0.0 mm
07:20 PM 81.7°F27.6°C 49.0°F9.4°C 32% 3.5 mph NE5.6 kmh NE 4.6 mph7.4 kmh 29.95 in1014.2 mb - 0.00 in0.0 mm 0.00 in0.0 mm
07:25 PM 81.7°F27.6°C 49.0°F9.4°C 32% 3.5 mph NNE5.6 kmh NNE 4.6 mph7.4 kmh 29.95 in1014.2 mb - 0.00 in0.0 mm 0.00 in0.0 mm
07:30 PM 81.6°F27.6°C 48.9°F9.4°C 32% 2.3 mph N3.7 kmh N 3.5 mph5.6 kmh 29.95 in1014.2 mb - 0.00 in0.0 mm 0.00 in0.0 mm
07:35 PM 81.5°F27.5°C 48.8°F9.3°C 32% 3.5 mph NNE5.6 kmh NNE 4.6 mph7.4 kmh 29.95 in1014.2 mb - 0.00 in0.0 mm 0.00 in0.0 mm
07:40 PM 81.4°F27.4°C 48.7°F9.3°C 32% 3.5 mph NNW5.6 kmh NNW 9.2 mph14.8 kmh 29.95 in1014.2 mb - 0.00 in0.0 mm 0.00 in0.0 mm
07:45 PM 81.3°F27.4°C 48.6°F9.2°C 32% 4.6 mph N7.4 kmh N 6.9 mph11.1 kmh 29.95 in1014.2 mb - 0.00 in0.0 mm 0.00 in0.0 mm
07:50 PM 81.1°F27.3°C 48.5°F9.2°C 32% 1.2 mph NE1.9 kmh NE 3.5 mph5.6 kmh 29.95 in1014.2 mb - 0.00 in0.0 mm 0.00 in0.0 mm
07:55 PM 81.2°F27.3°C 48.5°F9.2°C 32% 3.5 mph ENE5.6 kmh ENE 3.5 mph5.6 kmh 29.95 in1014.2 mb - 0.00 in0.0 mm 0.00 in0.0 mm
08:00 PM 81.2°F27.3°C 48.5°F9.2°C 32% 2.3 mph NW3.7 kmh NW 3.5 mph5.6 kmh 29.96 in1014.6 mb - 0.00 in0.0 mm 0.00 in0.0 mm
08:10 PM 81.2°F27.3°C 48.5°F9.2°C 32% 3.5 mph NE5.6 kmh NE 3.5 mph5.6 kmh 29.96 in1014.6 mb - 0.00 in0.0 mm 0.00 in0.0 mm
08:15 PM 81.1°F27.3°C 48.5°F9.2°C 32% 2.3 mph NNE3.7 kmh NNE 3.5 mph5.6 kmh 29.96 in1014.6 mb - 0.00 in0.0 mm 0.00 in0.0 mm
08:20 PM 81.1°F27.3°C 48.5°F9.2°C 32% 2.3 mph NE3.7 kmh NE 2.3 mph3.7 kmh 29.96 in1014.6 mb - 0.00 in0.0 mm 0.00 in0.0 mm
08:25 PM 81.1°F27.3°C 48.4°F9.1°C 32% 2.3 mph NE3.7 kmh NE 4.6 mph7.4 kmh 29.96 in1014.6 mb - 0.00 in0.0 mm 0.00 in0.0 mm
08:30 PM 81.3°F27.4°C 48.6°F9.2°C 32% 3.5 mph NE5.6 kmh NE 3.5 mph5.6 kmh 29.96 in1014.6 mb - 0.00 in0.0 mm 0.00 in0.0 mm
08:35 PM 81.2°F27.3°C 48.6°F9.2°C 32% 3.5 mph NE5.6 kmh NE 4.6 mph7.4 kmh 29.96 in1014.6 mb - 0.00 in0.0 mm 0.00 in0.0 mm
08:40 PM 81.1°F27.3°C 48.5°F9.2°C 32% 4.6 mph NE7.4 kmh NE 6.9 mph11.1 kmh 29.96 in1014.6 mb - 0.00 in0.0 mm 0.00 in0.0 mm
08:45 PM 81.0°F27.2°C 48.4°F9.1°C 32% 3.5 mph SE5.6 kmh SE 3.5 mph5.6 kmh 29.95 in1014.2 mb - 0.00 in0.0 mm 0.00 in0.0 mm
08:50 PM 80.8°F27.1°C 48.2°F9.0°C 32% 3.5 mph E5.6 kmh E 6.9 mph11.1 kmh 29.96 in1014.6 mb - 0.00 in0.0 mm 0.00 in0.0 mm
08:55 PM 80.8°F27.1°C 48.2°F9.0°C 32% 3.5 mph NE5.6 kmh NE 5.8 mph9.3 kmh 29.95 in1014.2 mb - 0.00 in0.0 mm 0.00 in0.0 mm
09:00 PM 80.7°F27.1°C 48.1°F8.9°C 32% 3.5 mph ENE5.6 kmh ENE 6.9 mph11.1 kmh 29.95 in1014.2 mb - 0.00 in0.0 mm 0.00 in0.0 mm
09:10 PM 80.7°F27.1°C 48.1°F8.9°C 32% 2.3 mph SE3.7 kmh SE 9.2 mph14.8 kmh 29.96 in1014.6 mb - 0.00 in0.0 mm 0.00 in0.0 mm
09:15 PM 80.7°F27.1°C 48.1°F8.9°C 32% 4.6 mph NE7.4 kmh NE 4.6 mph7.4 kmh 29.96 in1014.6 mb - 0.00 in0.0 mm 0.00 in0.0 mm
09:20 PM 80.7°F27.1°C 48.1°F8.9°C 32% 2.3 mph NNE3.7 kmh NNE 4.6 mph7.4 kmh 29.96 in1014.6 mb - 0.00 in0.0 mm 0.00 in0.0 mm
09:25 PM 80.8°F27.1°C 48.2°F9.0°C 32% 3.5 mph NNE5.6 kmh NNE 4.6 mph7.4 kmh 29.96 in1014.6 mb - 0.00 in0.0 mm 0.00 in0.0 mm
09:30 PM 80.8°F27.1°C 48.2°F9.0°C 32% 4.6 mph NNE7.4 kmh NNE 4.6 mph7.4 kmh 29.96 in1014.6 mb - 0.00 in0.0 mm 0.00 in0.0 mm
09:35 PM 80.7°F27.1°C 48.1°F8.9°C 32% 4.6 mph ENE7.4 kmh ENE 4.6 mph7.4 kmh 29.96 in1014.6 mb - 0.00 in0.0 mm 0.00 in0.0 mm
09:40 PM 80.7°F27.1°C 48.1°F8.9°C 32% 3.5 mph NNE5.6 kmh NNE 5.8 mph9.3 kmh 29.96 in1014.6 mb - 0.00 in0.0 mm 0.00 in0.0 mm
09:45 PM 80.5°F26.9°C 47.9°F8.8°C 32% 3.5 mph N5.6 kmh N 6.9 mph11.1 kmh 29.97 in1014.9 mb - 0.00 in0.0 mm 0.00 in0.0 mm
09:50 PM 80.5°F26.9°C 47.9°F8.8°C 32% 2.3 mph NNE3.7 kmh NNE 3.5 mph5.6 kmh 29.97 in1014.9 mb - 0.00 in0.0 mm 0.00 in0.0 mm
09:55 PM 80.3°F26.8°C 47.8°F8.8°C 32% 3.5 mph NNW5.6 kmh NNW 6.9 mph11.1 kmh 29.97 in1014.9 mb - 0.00 in0.0 mm 0.00 in0.0 mm
10:00 PM 80.2°F26.8°C 47.7°F8.7°C 32% 3.5 mph ENE5.6 kmh ENE 6.9 mph11.1 kmh 29.97 in1014.9 mb - 0.00 in0.0 mm 0.00 in0.0 mm
10:10 PM 79.9°F26.6°C 47.4°F8.6°C 32% 2.3 mph NE3.7 kmh NE 3.5 mph5.6 kmh 29.97 in1014.9 mb - 0.00 in0.0 mm 0.00 in0.0 mm
10:15 PM 79.9°F26.6°C 47.4°F8.6°C 32% 2.3 mph ENE3.7 kmh ENE 2.3 mph3.7 kmh 29.97 in1014.9 mb - 0.00 in0.0 mm 0.00 in0.0 mm
10:20 PM 79.8°F26.6°C 47.3°F8.5°C 32% 2.3 mph ENE3.7 kmh ENE 3.5 mph5.6 kmh 29.97 in1014.9 mb - 0.00 in0.0 mm 0.00 in0.0 mm
10:25 PM 79.6°F26.4°C 48.0°F8.9°C 33% 2.3 mph SSW3.7 kmh SSW 3.5 mph5.6 kmh 29.97 in1014.9 mb - 0.00 in0.0 mm 0.00 in0.0 mm
10:30 PM 79.5°F26.4°C 47.9°F8.8°C 33% 2.3 mph NNW3.7 kmh NNW 2.3 mph3.7 kmh 29.97 in1014.9 mb - 0.00 in0.0 mm 0.00 in0.0 mm
10:35 PM 79.4°F26.3°C 47.8°F8.8°C 33% 2.3 mph NNE3.7 kmh NNE 3.5 mph5.6 kmh 29.97 in1014.9 mb - 0.00 in0.0 mm 0.00 in0.0 mm
10:40 PM 79.3°F26.3°C 47.7°F8.7°C 33% 2.3 mph NE3.7 kmh NE 3.5 mph5.6 kmh 29.97 in1014.9 mb - 0.00 in0.0 mm 0.00 in0.0 mm
10:45 PM 79.3°F26.3°C 47.7°F8.7°C 33% 1.2 mph NE1.9 kmh NE 2.3 mph3.7 kmh 29.97 in1014.9 mb - 0.00 in0.0 mm 0.00 in0.0 mm
10:50 PM 79.0°F26.1°C 47.4°F8.6°C 33% 1.2 mph N1.9 kmh N 2.3 mph3.7 kmh 29.97 in1014.9 mb - 0.00 in0.0 mm 0.00 in0.0 mm
10:55 PM 78.7°F25.9°C 47.2°F8.4°C 33% Calm Calm 1.2 mph1.9 kmh 29.97 in1014.9 mb - 0.00 in0.0 mm 0.00 in0.0 mm
11:00 PM 78.5°F25.8°C 47.8°F8.8°C 34% 1.2 mph E1.9 kmh E 3.5 mph5.6 kmh 29.98 in1015.2 mb - 0.00 in0.0 mm 0.00 in0.0 mm
11:10 PM 78.3°F25.7°C 47.6°F8.7°C 34% 1.2 mph N1.9 kmh N 3.5 mph5.6 kmh 29.98 in1015.2 mb - 0.00 in0.0 mm 0.00 in0.0 mm
11:15 PM 78.2°F25.7°C 47.5°F8.6°C 34% 1.2 mph NE1.9 kmh NE 1.2 mph1.9 kmh 29.97 in1014.9 mb - 0.00 in0.0 mm 0.00 in0.0 mm
11:20 PM 78.1°F25.6°C 47.4°F8.6°C 34% 1.2 mph SE1.9 kmh SE 2.3 mph3.7 kmh 29.98 in1015.2 mb - 0.00 in0.0 mm 0.00 in0.0 mm
11:25 PM 78.2°F25.7°C 47.5°F8.6°C 34% 1.2 mph NE1.9 kmh NE 2.3 mph3.7 kmh 29.98 in1015.2 mb - 0.00 in0.0 mm 0.00 in0.0 mm
11:30 PM 78.1°F25.6°C 47.4°F8.6°C 34% Calm Calm 1.2 mph1.9 kmh 29.98 in1015.2 mb - 0.00 in0.0 mm 0.00 in0.0 mm
11:35 PM 77.9°F25.5°C 48.1°F8.9°C 35% Calm Calm -- 29.98 in1015.2 mb - 0.00 in0.0 mm 0.00 in0.0 mm
11:40 PM 77.6°F25.3°C 47.8°F8.8°C 35% 1.2 mph SE1.9 kmh SE 1.2 mph1.9 kmh 29.98 in1015.2 mb - 0.00 in0.0 mm 0.00 in0.0 mm
11:45 PM 77.3°F25.2°C 48.3°F9.1°C 36% Calm Calm -- 29.98 in1015.2 mb - 0.00 in0.0 mm 0.00 in0.0 mm
11:50 PM 76.8°F24.9°C 47.8°F8.8°C 36% Calm Calm -- 29.98 in1015.2 mb - 0.00 in0.0 mm 0.00 in0.0 mm
11:55 PM 76.3°F24.6°C 48.1°F8.9°C 37% Calm Calm -- 29.98 in1015.2 mb - 0.00 in0.0 mm 0.00 in0.0 mm